sensor_id;sensor_type;location;lat;lon;timestamp;temperature;humidity
10492;DHT22;5293;51.464;-2.566;2024-02-23T00:00:51;6.20;99.90
10492;DHT22;5293;51.464;-2.566;2024-02-23T00:03:16;6.30;99.90
10492;DHT22;5293;51.464;-2.566;2024-02-23T00:05:42;6.30;99.90
10492;DHT22;5293;51.464;-2.566;2024-02-23T00:08:08;6.20;99.90
10492;DHT22;5293;51.464;-2.566;2024-02-23T00:10:34;6.30;99.90
10492;DHT22;5293;51.464;-2.566;2024-02-23T00:13:01;6.30;99.90
10492;DHT22;5293;51.464;-2.566;2024-02-23T00:15:26;6.30;99.90
10492;DHT22;5293;51.464;-2.566;2024-02-23T00:17:52;6.30;99.90
10492;DHT22;5293;51.464;-2.566;2024-02-23T00:20:18;6.40;99.90
10492;DHT22;5293;51.464;-2.566;2024-02-23T00:22:46;6.50;99.90
10492;DHT22;5293;51.464;-2.566;2024-02-23T00:25:11;6.40;99.90
10492;DHT22;5293;51.464;-2.566;2024-02-23T00:27:37;6.50;99.90
10492;DHT22;5293;51.464;-2.566;2024-02-23T00:30:05;6.50;99.90
10492;DHT22;5293;51.464;-2.566;2024-02-23T00:32:31;6.50;99.90
10492;DHT22;5293;51.464;-2.566;2024-02-23T00:34:57;6.50;99.90
10492;DHT22;5293;51.464;-2.566;2024-02-23T00:37:23;6.40;99.90
10492;DHT22;5293;51.464;-2.566;2024-02-23T00:39:48;6.50;99.90
10492;DHT22;5293;51.464;-2.566;2024-02-23T00:42:14;6.50;99.90
10492;DHT22;5293;51.464;-2.566;2024-02-23T00:44:40;6.50;99.90
10492;DHT22;5293;51.464;-2.566;2024-02-23T00:47:06;6.50;99.90
10492;DHT22;5293;51.464;-2.566;2024-02-23T00:49:31;6.50;99.90
10492;DHT22;5293;51.464;-2.566;2024-02-23T00:51:57;6.50;99.90
10492;DHT22;5293;51.464;-2.566;2024-02-23T00:54:22;6.50;99.90
10492;DHT22;5293;51.464;-2.566;2024-02-23T00:56:48;6.40;99.90
10492;DHT22;5293;51.464;-2.566;2024-02-23T00:59:14;6.30;99.90
10492;DHT22;5293;51.464;-2.566;2024-02-23T01:01:40;6.10;99.90
10492;DHT22;5293;51.464;-2.566;2024-02-23T01:04:05;6.00;99.90
10492;DHT22;5293;51.464;-2.566;2024-02-23T01:06:31;6.00;99.90
10492;DHT22;5293;51.464;-2.566;2024-02-23T01:08:57;5.90;99.90
10492;DHT22;5293;51.464;-2.566;2024-02-23T01:11:22;5.80;99.90
10492;DHT22;5293;51.464;-2.566;2024-02-23T01:13:48;5.70;99.90
10492;DHT22;5293;51.464;-2.566;2024-02-23T01:16:14;5.70;99.90
10492;DHT22;5293;51.464;-2.566;2024-02-23T01:18:42;5.70;99.90
10492;DHT22;5293;51.464;-2.566;2024-02-23T01:21:08;5.70;99.90
10492;DHT22;5293;51.464;-2.566;2024-02-23T01:23:33;5.60;99.90
10492;DHT22;5293;51.464;-2.566;2024-02-23T01:25:59;5.70;99.90
10492;DHT22;5293;51.464;-2.566;2024-02-23T01:28:25;5.70;99.90
10492;DHT22;5293;51.464;-2.566;2024-02-23T01:30:51;5.60;99.90
10492;DHT22;5293;51.464;-2.566;2024-02-23T01:33:17;5.50;99.90
10492;DHT22;5293;51.464;-2.566;2024-02-23T01:35:42;5.50;99.90
10492;DHT22;5293;51.464;-2.566;2024-02-23T01:38:08;5.50;99.90
10492;DHT22;5293;51.464;-2.566;2024-02-23T01:40:33;5.50;99.90
10492;DHT22;5293;51.464;-2.566;2024-02-23T01:43:05;5.50;99.90
10492;DHT22;5293;51.464;-2.566;2024-02-23T01:45:31;5.40;99.90
10492;DHT22;5293;51.464;-2.566;2024-02-23T01:47:58;5.40;99.90
10492;DHT22;5293;51.464;-2.566;2024-02-23T01:50:25;5.50;99.90
10492;DHT22;5293;51.464;-2.566;2024-02-23T01:52:51;5.40;99.90
10492;DHT22;5293;51.464;-2.566;2024-02-23T01:55:21;5.40;99.90
10492;DHT22;5293;51.464;-2.566;2024-02-23T01:57:47;5.50;99.90
10492;DHT22;5293;51.464;-2.566;2024-02-23T02:00:17;5.40;99.90
10492;DHT22;5293;51.464;-2.566;2024-02-23T02:02:44;5.40;99.90
10492;DHT22;5293;51.464;-2.566;2024-02-23T02:05:10;5.50;99.90
10492;DHT22;5293;51.464;-2.566;2024-02-23T02:07:36;5.50;99.90
10492;DHT22;5293;51.464;-2.566;2024-02-23T02:10:04;5.50;99.90
10492;DHT22;5293;51.464;-2.566;2024-02-23T02:12:32;5.40;99.90
10492;DHT22;5293;51.464;-2.566;2024-02-23T02:14:57;5.40;99.90
10492;DHT22;5293;51.464;-2.566;2024-02-23T02:17:26;5.40;99.90
10492;DHT22;5293;51.464;-2.566;2024-02-23T02:19:52;5.40;99.90
10492;DHT22;5293;51.464;-2.566;2024-02-23T02:22:18;5.40;99.90
10492;DHT22;5293;51.464;-2.566;2024-02-23T02:24:44;5.40;99.90
10492;DHT22;5293;51.464;-2.566;2024-02-23T02:27:12;5.40;99.90
10492;DHT22;5293;51.464;-2.566;2024-02-23T02:29:38;5.40;99.90
10492;DHT22;5293;51.464;-2.566;2024-02-23T02:32:04;5.40;99.90
10492;DHT22;5293;51.464;-2.566;2024-02-23T02:34:29;5.50;99.90
10492;DHT22;5293;51.464;-2.566;2024-02-23T02:36:55;5.50;99.90
10492;DHT22;5293;51.464;-2.566;2024-02-23T02:39:21;5.50;99.90
10492;DHT22;5293;51.464;-2.566;2024-02-23T02:41:50;5.50;99.90
10492;DHT22;5293;51.464;-2.566;2024-02-23T02:44:16;5.50;99.90
10492;DHT22;5293;51.464;-2.566;2024-02-23T02:46:42;5.40;99.90
10492;DHT22;5293;51.464;-2.566;2024-02-23T02:49:09;5.40;99.90
10492;DHT22;5293;51.464;-2.566;2024-02-23T02:51:35;5.50;99.90
10492;DHT22;5293;51.464;-2.566;2024-02-23T02:54:01;5.50;99.90
10492;DHT22;5293;51.464;-2.566;2024-02-23T02:56:26;5.40;99.90
10492;DHT22;5293;51.464;-2.566;2024-02-23T02:58:52;5.40;99.90
10492;DHT22;5293;51.464;-2.566;2024-02-23T03:01:18;5.40;99.90
10492;DHT22;5293;51.464;-2.566;2024-02-23T03:03:43;5.40;99.90
10492;DHT22;5293;51.464;-2.566;2024-02-23T03:06:09;5.40;99.90
10492;DHT22;5293;51.464;-2.566;2024-02-23T03:08:35;5.40;99.90
10492;DHT22;5293;51.464;-2.566;2024-02-23T03:11:00;5.40;99.90
10492;DHT22;5293;51.464;-2.566;2024-02-23T03:13:26;5.40;99.90
10492;DHT22;5293;51.464;-2.566;2024-02-23T03:15:52;5.40;99.90
10492;DHT22;5293;51.464;-2.566;2024-02-23T03:18:17;5.40;99.90
10492;DHT22;5293;51.464;-2.566;2024-02-23T03:20:44;5.50;99.90
10492;DHT22;5293;51.464;-2.566;2024-02-23T03:23:10;5.50;99.90
10492;DHT22;5293;51.464;-2.566;2024-02-23T03:25:36;5.50;99.90
10492;DHT22;5293;51.464;-2.566;2024-02-23T03:28:02;5.50;99.90
10492;DHT22;5293;51.464;-2.566;2024-02-23T03:30:27;5.60;99.90
10492;DHT22;5293;51.464;-2.566;2024-02-23T03:32:53;5.50;99.90
10492;DHT22;5293;51.464;-2.566;2024-02-23T03:35:19;5.50;99.90
10492;DHT22;5293;51.464;-2.566;2024-02-23T03:37:44;5.40;99.90
10492;DHT22;5293;51.464;-2.566;2024-02-23T03:40:10;5.50;99.90
10492;DHT22;5293;51.464;-2.566;2024-02-23T03:42:36;5.50;99.90
10492;DHT22;5293;51.464;-2.566;2024-02-23T03:45:02;5.50;99.90
10492;DHT22;5293;51.464;-2.566;2024-02-23T03:47:28;5.50;99.90
10492;DHT22;5293;51.464;-2.566;2024-02-23T03:49:54;5.50;99.90
10492;DHT22;5293;51.464;-2.566;2024-02-23T03:52:19;5.60;99.90
10492;DHT22;5293;51.464;-2.566;2024-02-23T03:54:45;5.60;99.90
10492;DHT22;5293;51.464;-2.566;2024-02-23T03:57:11;5.60;99.90
10492;DHT22;5293;51.464;-2.566;2024-02-23T03:59:37;5.60;99.90
10492;DHT22;5293;51.464;-2.566;2024-02-23T04:02:03;5.70;99.90
10492;DHT22;5293;51.464;-2.566;2024-02-23T04:04:29;5.70;99.90
10492;DHT22;5293;51.464;-2.566;2024-02-23T04:06:55;5.70;99.90
10492;DHT22;5293;51.464;-2.566;2024-02-23T04:09:21;5.70;99.90
10492;DHT22;5293;51.464;-2.566;2024-02-23T04:11:49;5.70;99.90
10492;DHT22;5293;51.464;-2.566;2024-02-23T04:14:15;5.70;99.90
10492;DHT22;5293;51.464;-2.566;2024-02-23T04:16:40;5.80;99.90
10492;DHT22;5293;51.464;-2.566;2024-02-23T04:19:06;5.70;99.90
10492;DHT22;5293;51.464;-2.566;2024-02-23T04:21:32;5.70;99.90
10492;DHT22;5293;51.464;-2.566;2024-02-23T04:23:58;5.70;99.90
10492;DHT22;5293;51.464;-2.566;2024-02-23T04:26:23;5.70;99.90
10492;DHT22;5293;51.464;-2.566;2024-02-23T04:28:49;5.70;99.90
10492;DHT22;5293;51.464;-2.566;2024-02-23T04:31:14;5.70;99.90
10492;DHT22;5293;51.464;-2.566;2024-02-23T04:33:40;5.90;99.90
10492;DHT22;5293;51.464;-2.566;2024-02-23T04:36:06;5.80;99.90
10492;DHT22;5293;51.464;-2.566;2024-02-23T04:38:32;5.90;99.90
10492;DHT22;5293;51.464;-2.566;2024-02-23T04:41:03;5.80;99.90
10492;DHT22;5293;51.464;-2.566;2024-02-23T04:43:29;5.80;99.90
10492;DHT22;5293;51.464;-2.566;2024-02-23T04:45:55;5.80;99.90
10492;DHT22;5293;51.464;-2.566;2024-02-23T04:48:20;5.80;99.90
10492;DHT22;5293;51.464;-2.566;2024-02-23T04:50:46;5.70;99.90
10492;DHT22;5293;51.464;-2.566;2024-02-23T04:53:11;5.80;99.90
10492;DHT22;5293;51.464;-2.566;2024-02-23T04:55:37;5.80;99.90
10492;DHT22;5293;51.464;-2.566;2024-02-23T04:58:03;5.90;99.90
10492;DHT22;5293;51.464;-2.566;2024-02-23T05:00:28;5.80;99.90
10492;DHT22;5293;51.464;-2.566;2024-02-23T05:03:02;5.80;99.90
10492;DHT22;5293;51.464;-2.566;2024-02-23T05:05:30;5.80;99.90
10492;DHT22;5293;51.464;-2.566;2024-02-23T05:07:55;5.80;99.90
10492;DHT22;5293;51.464;-2.566;2024-02-23T05:10:22;5.80;99.90
10492;DHT22;5293;51.464;-2.566;2024-02-23T05:12:48;5.70;99.90
10492;DHT22;5293;51.464;-2.566;2024-02-23T05:15:14;5.70;99.90
10492;DHT22;5293;51.464;-2.566;2024-02-23T05:17:40;5.80;99.90
10492;DHT22;5293;51.464;-2.566;2024-02-23T05:20:06;5.80;99.90
10492;DHT22;5293;51.464;-2.566;2024-02-23T05:22:38;5.90;99.90
10492;DHT22;5293;51.464;-2.566;2024-02-23T05:25:03;5.90;99.90
10492;DHT22;5293;51.464;-2.566;2024-02-23T05:27:30;5.90;99.90
10492;DHT22;5293;51.464;-2.566;2024-02-23T05:29:56;5.90;99.90
10492;DHT22;5293;51.464;-2.566;2024-02-23T05:32:22;5.90;99.90
10492;DHT22;5293;51.464;-2.566;2024-02-23T05:34:47;5.90;99.90
10492;DHT22;5293;51.464;-2.566;2024-02-23T05:37:17;5.80;99.90
10492;DHT22;5293;51.464;-2.566;2024-02-23T05:39:42;5.90;99.90
10492;DHT22;5293;51.464;-2.566;2024-02-23T05:42:08;5.80;99.90
10492;DHT22;5293;51.464;-2.566;2024-02-23T05:44:34;5.80;99.90
10492;DHT22;5293;51.464;-2.566;2024-02-23T05:46:59;5.80;99.90
10492;DHT22;5293;51.464;-2.566;2024-02-23T05:49:25;5.80;99.90
10492;DHT22;5293;51.464;-2.566;2024-02-23T05:51:51;5.70;99.90
10492;DHT22;5293;51.464;-2.566;2024-02-23T05:54:16;5.70;99.90
10492;DHT22;5293;51.464;-2.566;2024-02-23T05:56:44;5.70;99.90
10492;DHT22;5293;51.464;-2.566;2024-02-23T05:59:10;5.60;99.90
10492;DHT22;5293;51.464;-2.566;2024-02-23T06:01:35;5.60;99.90
10492;DHT22;5293;51.464;-2.566;2024-02-23T06:04:01;5.50;99.90
10492;DHT22;5293;51.464;-2.566;2024-02-23T06:06:26;5.60;99.90
10492;DHT22;5293;51.464;-2.566;2024-02-23T06:08:52;5.50;99.90
10492;DHT22;5293;51.464;-2.566;2024-02-23T06:11:18;5.40;99.90
10492;DHT22;5293;51.464;-2.566;2024-02-23T06:13:43;5.40;99.90
10492;DHT22;5293;51.464;-2.566;2024-02-23T06:16:12;5.40;99.90
10492;DHT22;5293;51.464;-2.566;2024-02-23T06:18:41;5.40;99.90
10492;DHT22;5293;51.464;-2.566;2024-02-23T06:21:16;5.40;99.90
10492;DHT22;5293;51.464;-2.566;2024-02-23T06:23:43;5.40;99.90
10492;DHT22;5293;51.464;-2.566;2024-02-23T06:26:09;5.50;99.90
10492;DHT22;5293;51.464;-2.566;2024-02-23T06:28:35;5.50;99.90
10492;DHT22;5293;51.464;-2.566;2024-02-23T06:31:03;5.50;99.90
10492;DHT22;5293;51.464;-2.566;2024-02-23T06:33:30;5.50;99.90
10492;DHT22;5293;51.464;-2.566;2024-02-23T06:35:56;5.50;99.90
10492;DHT22;5293;51.464;-2.566;2024-02-23T06:38:21;5.50;99.90
10492;DHT22;5293;51.464;-2.566;2024-02-23T06:40:47;5.50;99.90
10492;DHT22;5293;51.464;-2.566;2024-02-23T06:43:13;5.50;99.90
10492;DHT22;5293;51.464;-2.566;2024-02-23T06:45:39;5.50;99.90
10492;DHT22;5293;51.464;-2.566;2024-02-23T06:48:05;5.50;99.90
10492;DHT22;5293;51.464;-2.566;2024-02-23T06:50:31;5.60;99.90
10492;DHT22;5293;51.464;-2.566;2024-02-23T06:52:56;5.50;99.90
10492;DHT22;5293;51.464;-2.566;2024-02-23T06:55:22;5.50;99.90
10492;DHT22;5293;51.464;-2.566;2024-02-23T06:57:48;5.50;99.90
10492;DHT22;5293;51.464;-2.566;2024-02-23T07:00:14;5.50;99.90
10492;DHT22;5293;51.464;-2.566;2024-02-23T07:02:40;5.50;99.90
10492;DHT22;5293;51.464;-2.566;2024-02-23T07:05:06;5.60;99.90
10492;DHT22;5293;51.464;-2.566;2024-02-23T07:07:32;5.50;99.90
10492;DHT22;5293;51.464;-2.566;2024-02-23T07:09:59;5.60;99.90
10492;DHT22;5293;51.464;-2.566;2024-02-23T07:12:25;5.60;99.90
10492;DHT22;5293;51.464;-2.566;2024-02-23T07:14:53;5.70;99.90
10492;DHT22;5293;51.464;-2.566;2024-02-23T07:17:19;5.70;99.90
10492;DHT22;5293;51.464;-2.566;2024-02-23T07:19:45;5.80;99.90
10492;DHT22;5293;51.464;-2.566;2024-02-23T07:22:10;5.80;99.90
10492;DHT22;5293;51.464;-2.566;2024-02-23T07:24:42;5.90;99.90
10492;DHT22;5293;51.464;-2.566;2024-02-23T07:27:08;5.80;99.90
10492;DHT22;5293;51.464;-2.566;2024-02-23T07:29:34;5.80;99.90
10492;DHT22;5293;51.464;-2.566;2024-02-23T07:32:00;5.80;99.90
10492;DHT22;5293;51.464;-2.566;2024-02-23T07:34:26;5.90;99.90
10492;DHT22;5293;51.464;-2.566;2024-02-23T07:36:52;5.90;99.90
10492;DHT22;5293;51.464;-2.566;2024-02-23T07:39:18;6.00;99.90
10492;DHT22;5293;51.464;-2.566;2024-02-23T07:41:44;6.00;99.90
10492;DHT22;5293;51.464;-2.566;2024-02-23T07:44:10;6.00;99.90
10492;DHT22;5293;51.464;-2.566;2024-02-23T07:46:48;6.00;99.90
10492;DHT22;5293;51.464;-2.566;2024-02-23T07:49:17;6.00;99.90
10492;DHT22;5293;51.464;-2.566;2024-02-23T07:51:44;6.00;99.90
10492;DHT22;5293;51.464;-2.566;2024-02-23T07:54:10;6.00;99.90
10492;DHT22;5293;51.464;-2.566;2024-02-23T07:56:35;6.10;99.90
10492;DHT22;5293;51.464;-2.566;2024-02-23T07:59:01;6.10;99.90
10492;DHT22;5293;51.464;-2.566;2024-02-23T08:01:28;6.00;99.90
10492;DHT22;5293;51.464;-2.566;2024-02-23T08:03:54;6.10;99.90
10492;DHT22;5293;51.464;-2.566;2024-02-23T08:06:20;6.10;99.90
10492;DHT22;5293;51.464;-2.566;2024-02-23T08:08:46;6.20;99.90
10492;DHT22;5293;51.464;-2.566;2024-02-23T08:11:12;6.20;99.90
10492;DHT22;5293;51.464;-2.566;2024-02-23T08:13:39;6.20;99.90
10492;DHT22;5293;51.464;-2.566;2024-02-23T08:16:06;6.20;99.90
10492;DHT22;5293;51.464;-2.566;2024-02-23T08:18:32;6.30;99.90
10492;DHT22;5293;51.464;-2.566;2024-02-23T08:20:58;6.30;99.90
10492;DHT22;5293;51.464;-2.566;2024-02-23T08:23:24;6.30;99.90
10492;DHT22;5293;51.464;-2.566;2024-02-23T08:25:50;6.30;99.90
10492;DHT22;5293;51.464;-2.566;2024-02-23T08:28:16;6.20;99.90
10492;DHT22;5293;51.464;-2.566;2024-02-23T08:30:42;6.20;99.90
10492;DHT22;5293;51.464;-2.566;2024-02-23T08:33:07;6.20;99.90
10492;DHT22;5293;51.464;-2.566;2024-02-23T08:35:35;6.20;99.90
10492;DHT22;5293;51.464;-2.566;2024-02-23T08:38:01;6.20;99.90
10492;DHT22;5293;51.464;-2.566;2024-02-23T08:40:26;6.30;99.90
10492;DHT22;5293;51.464;-2.566;2024-02-23T08:42:52;6.20;99.90
10492;DHT22;5293;51.464;-2.566;2024-02-23T08:45:18;6.20;99.90
10492;DHT22;5293;51.464;-2.566;2024-02-23T08:47:43;6.20;99.90
10492;DHT22;5293;51.464;-2.566;2024-02-23T08:50:10;6.10;99.90
10492;DHT22;5293;51.464;-2.566;2024-02-23T08:52:35;6.20;99.90
10492;DHT22;5293;51.464;-2.566;2024-02-23T08:55:01;6.20;99.90
10492;DHT22;5293;51.464;-2.566;2024-02-23T08:57:27;6.20;99.90
10492;DHT22;5293;51.464;-2.566;2024-02-23T08:59:53;6.30;99.90
10492;DHT22;5293;51.464;-2.566;2024-02-23T09:02:19;6.30;99.90
10492;DHT22;5293;51.464;-2.566;2024-02-23T09:04:45;6.20;99.90
10492;DHT22;5293;51.464;-2.566;2024-02-23T09:07:12;6.30;99.90
10492;DHT22;5293;51.464;-2.566;2024-02-23T09:09:38;6.30;99.90
10492;DHT22;5293;51.464;-2.566;2024-02-23T09:12:04;6.20;99.90
10492;DHT22;5293;51.464;-2.566;2024-02-23T09:14:32;6.20;99.90
10492;DHT22;5293;51.464;-2.566;2024-02-23T09:16:58;6.20;99.90
10492;DHT22;5293;51.464;-2.566;2024-02-23T09:19:24;6.20;99.90
10492;DHT22;5293;51.464;-2.566;2024-02-23T09:21:49;6.30;99.90
10492;DHT22;5293;51.464;-2.566;2024-02-23T09:24:15;6.40;99.90
10492;DHT22;5293;51.464;-2.566;2024-02-23T09:26:41;6.40;99.90
10492;DHT22;5293;51.464;-2.566;2024-02-23T09:29:07;6.50;99.90
10492;DHT22;5293;51.464;-2.566;2024-02-23T09:31:33;6.60;99.90
10492;DHT22;5293;51.464;-2.566;2024-02-23T09:33:59;6.80;99.90
10492;DHT22;5293;51.464;-2.566;2024-02-23T09:36:24;6.80;99.90
10492;DHT22;5293;51.464;-2.566;2024-02-23T09:38:50;6.80;99.90
10492;DHT22;5293;51.464;-2.566;2024-02-23T09:41:20;6.90;99.90
10492;DHT22;5293;51.464;-2.566;2024-02-23T09:43:47;7.00;99.90
10492;DHT22;5293;51.464;-2.566;2024-02-23T09:46:17;7.20;99.90
10492;DHT22;5293;51.464;-2.566;2024-02-23T09:48:44;7.20;99.90
10492;DHT22;5293;51.464;-2.566;2024-02-23T09:51:11;7.20;99.90
10492;DHT22;5293;51.464;-2.566;2024-02-23T09:53:38;7.20;99.90
10492;DHT22;5293;51.464;-2.566;2024-02-23T09:56:05;7.30;99.90
10492;DHT22;5293;51.464;-2.566;2024-02-23T09:58:32;7.20;99.90
10492;DHT22;5293;51.464;-2.566;2024-02-23T10:00:59;7.10;99.90
10492;DHT22;5293;51.464;-2.566;2024-02-23T10:03:27;7.00;99.90
10492;DHT22;5293;51.464;-2.566;2024-02-23T10:05:54;7.00;99.90
10492;DHT22;5293;51.464;-2.566;2024-02-23T10:08:20;6.80;99.90
10492;DHT22;5293;51.464;-2.566;2024-02-23T10:10:46;6.80;99.90
10492;DHT22;5293;51.464;-2.566;2024-02-23T10:13:13;6.70;99.90
10492;DHT22;5293;51.464;-2.566;2024-02-23T10:15:38;6.80;99.90
10492;DHT22;5293;51.464;-2.566;2024-02-23T10:18:04;6.80;99.90
10492;DHT22;5293;51.464;-2.566;2024-02-23T10:20:31;6.90;99.90
10492;DHT22;5293;51.464;-2.566;2024-02-23T10:22:57;7.00;99.90
10492;DHT22;5293;51.464;-2.566;2024-02-23T10:25:22;7.00;99.90
10492;DHT22;5293;51.464;-2.566;2024-02-23T10:27:48;7.00;99.90
10492;DHT22;5293;51.464;-2.566;2024-02-23T10:30:14;7.00;99.90
10492;DHT22;5293;51.464;-2.566;2024-02-23T10:32:43;7.10;99.90
10492;DHT22;5293;51.464;-2.566;2024-02-23T10:35:13;7.10;99.90
10492;DHT22;5293;51.464;-2.566;2024-02-23T10:37:42;7.10;99.90
10492;DHT22;5293;51.464;-2.566;2024-02-23T10:40:11;7.10;99.90
10492;DHT22;5293;51.464;-2.566;2024-02-23T10:42:39;7.20;99.90
10492;DHT22;5293;51.464;-2.566;2024-02-23T10:45:06;7.20;99.90
10492;DHT22;5293;51.464;-2.566;2024-02-23T10:47:34;7.20;99.90
10492;DHT22;5293;51.464;-2.566;2024-02-23T10:50:01;7.40;99.90
10492;DHT22;5293;51.464;-2.566;2024-02-23T10:52:31;7.50;99.90
10492;DHT22;5293;51.464;-2.566;2024-02-23T10:54:57;7.60;99.90
10492;DHT22;5293;51.464;-2.566;2024-02-23T10:57:26;7.70;99.90
10492;DHT22;5293;51.464;-2.566;2024-02-23T10:59:52;7.70;99.90
10492;DHT22;5293;51.464;-2.566;2024-02-23T11:02:20;7.60;99.90
10492;DHT22;5293;51.464;-2.566;2024-02-23T11:04:48;7.40;99.90
10492;DHT22;5293;51.464;-2.566;2024-02-23T11:07:20;7.30;99.90
10492;DHT22;5293;51.464;-2.566;2024-02-23T11:09:53;7.20;99.90
10492;DHT22;5293;51.464;-2.566;2024-02-23T11:12:26;7.20;99.90
10492;DHT22;5293;51.464;-2.566;2024-02-23T11:14:56;7.20;99.90
10492;DHT22;5293;51.464;-2.566;2024-02-23T11:17:23;7.30;99.90
10492;DHT22;5293;51.464;-2.566;2024-02-23T11:19:51;7.50;99.90
10492;DHT22;5293;51.464;-2.566;2024-02-23T11:22:35;7.60;99.90
10492;DHT22;5293;51.464;-2.566;2024-02-23T11:25:05;7.70;99.90
10492;DHT22;5293;51.464;-2.566;2024-02-23T11:27:35;7.70;99.90
10492;DHT22;5293;51.464;-2.566;2024-02-23T11:30:08;7.70;99.90
10492;DHT22;5293;51.464;-2.566;2024-02-23T11:32:48;7.60;99.90
10492;DHT22;5293;51.464;-2.566;2024-02-23T11:35:15;7.60;99.90
10492;DHT22;5293;51.464;-2.566;2024-02-23T11:40:15;7.70;99.90
10492;DHT22;5293;51.464;-2.566;2024-02-23T11:42:43;7.70;99.90
10492;DHT22;5293;51.464;-2.566;2024-02-23T11:45:09;7.50;99.90
10492;DHT22;5293;51.464;-2.566;2024-02-23T11:47:37;7.50;99.90
10492;DHT22;5293;51.464;-2.566;2024-02-23T11:50:04;7.50;99.90
10492;DHT22;5293;51.464;-2.566;2024-02-23T11:52:31;7.60;99.90
10492;DHT22;5293;51.464;-2.566;2024-02-23T11:54:57;7.70;99.90
10492;DHT22;5293;51.464;-2.566;2024-02-23T11:57:23;7.80;99.90
10492;DHT22;5293;51.464;-2.566;2024-02-23T11:59:51;7.70;99.90
10492;DHT22;5293;51.464;-2.566;2024-02-23T12:02:17;7.60;99.90
10492;DHT22;5293;51.464;-2.566;2024-02-23T12:04:43;7.60;99.90
10492;DHT22;5293;51.464;-2.566;2024-02-23T12:07:09;7.70;99.90
10492;DHT22;5293;51.464;-2.566;2024-02-23T12:09:35;7.60;99.90
10492;DHT22;5293;51.464;-2.566;2024-02-23T12:12:01;7.70;99.90
10492;DHT22;5293;51.464;-2.566;2024-02-23T12:14:27;7.80;99.90
10492;DHT22;5293;51.464;-2.566;2024-02-23T12:16:52;7.70;99.90
10492;DHT22;5293;51.464;-2.566;2024-02-23T12:19:18;7.70;99.90
10492;DHT22;5293;51.464;-2.566;2024-02-23T12:21:47;7.80;99.90
10492;DHT22;5293;51.464;-2.566;2024-02-23T12:24:12;7.90;99.90
10492;DHT22;5293;51.464;-2.566;2024-02-23T12:26:38;7.90;99.90
10492;DHT22;5293;51.464;-2.566;2024-02-23T12:29:06;7.90;99.90
10492;DHT22;5293;51.464;-2.566;2024-02-23T12:31:32;8.20;99.90
10492;DHT22;5293;51.464;-2.566;2024-02-23T12:33:58;8.30;99.90
10492;DHT22;5293;51.464;-2.566;2024-02-23T12:36:24;8.60;99.90
10492;DHT22;5293;51.464;-2.566;2024-02-23T12:38:49;8.60;99.90
10492;DHT22;5293;51.464;-2.566;2024-02-23T12:41:15;8.60;99.90
10492;DHT22;5293;51.464;-2.566;2024-02-23T12:43:41;8.60;99.90
10492;DHT22;5293;51.464;-2.566;2024-02-23T12:46:07;8.60;99.90
10492;DHT22;5293;51.464;-2.566;2024-02-23T12:48:35;8.70;99.90
10492;DHT22;5293;51.464;-2.566;2024-02-23T12:51:00;8.60;99.90
10492;DHT22;5293;51.464;-2.566;2024-02-23T12:53:40;8.50;99.90
10492;DHT22;5293;51.464;-2.566;2024-02-23T12:56:07;8.40;99.90
10492;DHT22;5293;51.464;-2.566;2024-02-23T12:58:35;8.40;99.90
10492;DHT22;5293;51.464;-2.566;2024-02-23T13:01:01;8.30;99.90
10492;DHT22;5293;51.464;-2.566;2024-02-23T13:03:27;8.40;99.90
10492;DHT22;5293;51.464;-2.566;2024-02-23T13:05:56;8.50;99.90
10492;DHT22;5293;51.464;-2.566;2024-02-23T13:08:23;8.40;99.90
10492;DHT22;5293;51.464;-2.566;2024-02-23T13:10:52;8.50;99.90
10492;DHT22;5293;51.464;-2.566;2024-02-23T13:13:19;8.60;99.90
10492;DHT22;5293;51.464;-2.566;2024-02-23T13:15:48;8.70;99.90
10492;DHT22;5293;51.464;-2.566;2024-02-23T13:18:15;8.90;99.90
10492;DHT22;5293;51.464;-2.566;2024-02-23T13:20:41;8.90;99.90
10492;DHT22;5293;51.464;-2.566;2024-02-23T13:23:10;8.90;99.90
10492;DHT22;5293;51.464;-2.566;2024-02-23T13:25:37;8.70;99.90
10492;DHT22;5293;51.464;-2.566;2024-02-23T13:28:04;8.50;99.90
10492;DHT22;5293;51.464;-2.566;2024-02-23T13:30:30;8.50;99.90
10492;DHT22;5293;51.464;-2.566;2024-02-23T13:32:56;8.30;99.90
10492;DHT22;5293;51.464;-2.566;2024-02-23T13:35:22;8.10;99.90
10492;DHT22;5293;51.464;-2.566;2024-02-23T13:37:47;8.10;99.90
10492;DHT22;5293;51.464;-2.566;2024-02-23T13:40:13;8.10;99.90
10492;DHT22;5293;51.464;-2.566;2024-02-23T13:42:39;8.00;99.90
10492;DHT22;5293;51.464;-2.566;2024-02-23T13:45:06;8.10;99.90
10492;DHT22;5293;51.464;-2.566;2024-02-23T13:47:32;7.90;99.90
10492;DHT22;5293;51.464;-2.566;2024-02-23T13:49:58;7.70;99.90
10492;DHT22;5293;51.464;-2.566;2024-02-23T13:52:24;7.40;99.90
10492;DHT22;5293;51.464;-2.566;2024-02-23T13:54:50;7.10;99.90
10492;DHT22;5293;51.464;-2.566;2024-02-23T13:57:15;6.80;99.90
10492;DHT22;5293;51.464;-2.566;2024-02-23T13:59:41;6.70;99.90
10492;DHT22;5293;51.464;-2.566;2024-02-23T14:02:07;6.60;99.90
10492;DHT22;5293;51.464;-2.566;2024-02-23T14:04:33;6.70;99.90
10492;DHT22;5293;51.464;-2.566;2024-02-23T14:06:59;6.80;99.90
10492;DHT22;5293;51.464;-2.566;2024-02-23T14:09:24;6.90;99.90
10492;DHT22;5293;51.464;-2.566;2024-02-23T14:11:50;7.00;99.90
10492;DHT22;5293;51.464;-2.566;2024-02-23T14:14:16;7.10;99.90
10492;DHT22;5293;51.464;-2.566;2024-02-23T14:16:42;7.20;99.90
10492;DHT22;5293;51.464;-2.566;2024-02-23T14:19:07;7.30;99.90
10492;DHT22;5293;51.464;-2.566;2024-02-23T14:21:33;7.30;99.90
10492;DHT22;5293;51.464;-2.566;2024-02-23T14:24:02;7.20;99.90
10492;DHT22;5293;51.464;-2.566;2024-02-23T14:26:28;7.20;99.90
10492;DHT22;5293;51.464;-2.566;2024-02-23T14:28:53;7.30;99.90
10492;DHT22;5293;51.464;-2.566;2024-02-23T14:31:19;7.40;99.90
10492;DHT22;5293;51.464;-2.566;2024-02-23T14:33:45;7.70;99.90
10492;DHT22;5293;51.464;-2.566;2024-02-23T14:36:10;7.70;99.90
10492;DHT22;5293;51.464;-2.566;2024-02-23T14:38:36;7.80;99.90
10492;DHT22;5293;51.464;-2.566;2024-02-23T14:41:02;7.80;99.90
10492;DHT22;5293;51.464;-2.566;2024-02-23T14:43:28;7.80;99.90
10492;DHT22;5293;51.464;-2.566;2024-02-23T14:45:57;7.80;99.90
10492;DHT22;5293;51.464;-2.566;2024-02-23T14:48:23;7.90;99.90
10492;DHT22;5293;51.464;-2.566;2024-02-23T14:50:48;8.00;99.90
10492;DHT22;5293;51.464;-2.566;2024-02-23T14:53:15;8.10;99.90
10492;DHT22;5293;51.464;-2.566;2024-02-23T14:55:41;8.00;99.90
10492;DHT22;5293;51.464;-2.566;2024-02-23T14:58:07;8.00;99.90
10492;DHT22;5293;51.464;-2.566;2024-02-23T15:00:33;7.90;99.90
10492;DHT22;5293;51.464;-2.566;2024-02-23T15:02:59;7.90;99.90
10492;DHT22;5293;51.464;-2.566;2024-02-23T15:05:24;8.00;99.90
10492;DHT22;5293;51.464;-2.566;2024-02-23T15:07:50;7.90;99.90
10492;DHT22;5293;51.464;-2.566;2024-02-23T15:10:16;7.90;99.90
10492;DHT22;5293;51.464;-2.566;2024-02-23T15:12:41;7.70;99.90
10492;DHT22;5293;51.464;-2.566;2024-02-23T15:15:08;7.50;99.90
10492;DHT22;5293;51.464;-2.566;2024-02-23T15:17:33;7.20;99.90
10492;DHT22;5293;51.464;-2.566;2024-02-23T15:19:59;6.90;99.90
10492;DHT22;5293;51.464;-2.566;2024-02-23T15:22:25;6.80;99.90
10492;DHT22;5293;51.464;-2.566;2024-02-23T15:24:51;6.70;99.90
10492;DHT22;5293;51.464;-2.566;2024-02-23T15:27:18;6.70;99.90
10492;DHT22;5293;51.464;-2.566;2024-02-23T15:29:46;6.80;99.90
10492;DHT22;5293;51.464;-2.566;2024-02-23T15:32:13;6.80;99.90
10492;DHT22;5293;51.464;-2.566;2024-02-23T15:34:40;6.80;99.90
10492;DHT22;5293;51.464;-2.566;2024-02-23T15:37:06;6.80;99.90
10492;DHT22;5293;51.464;-2.566;2024-02-23T15:39:33;6.80;99.90
10492;DHT22;5293;51.464;-2.566;2024-02-23T15:41:58;6.80;99.90